• Join FlightAware (Why Join?)
  • Login
  • US Flag 
07:01PM EDT


 

Airport Tracker/Info


-or-


 

Live Flight TrackerFlight Track Log ✈ EJA941 ✈ 26-Apr-2013 ✈ KBTV - KALB

Flight Track Log - Related Links

Times and Time Zones

All times are in EDT time to prevent confusion due to time zone crossing. See the EJA941 flight status page for this flight to view local times or setup timezone preferences in your user account.

Time Position Orientation Groundspeed Altitude Reporting Facility
EDT Latitude Longitude Course Direction KTS MPH feet Rate Location/Type
02:37PM 44.4853 -73.3042 187° South 234 269 10,100  Level Boston Center
02:38PM 44.4014 -73.3611 206° Southwest 264 304 12,000 960 Climbing Boston Center
02:39PM 44.2950 -73.3625 181° South 351 404 12,100  Climbing Boston Center
02:40PM 44.1889 -73.3608 179° South 387 445 12,000 -60 Descending Boston Center
02:41PM 43.8621 -73.2167 180° South  Level FlightAware Approximate
02:41PM 44.0783 -73.3592 179° South 400 460 12,000  Level Boston Center
02:42PM 43.7615 -73.2315 187° South  Level FlightAware Approximate
02:42PM 43.9681 -73.3603 180° South 400 460 12,100  Level Boston Center
02:43PM 43.8575 -73.3586 179° South 400 460 12,100  Level Boston Center
02:44PM 43.7431 -73.3569 179° South 405 466 12,100 -60 Level Boston Center
02:45PM 43.6431 -73.3525 178° South 405 466 12,000 -780 Descending Boston Center
02:46PM 43.5033 -73.3531 180° South 401 461 10,500 -1,260 Descending Boston Center
02:46PM 43.4617 -73.3525 179° South 391 450 10,100 -600 Descending Boston Center
02:47PM 43.4283 -73.3492 176° South 400 460 10,000 -120 Descending Boston Center
02:47PM 43.3597 -73.3511 181° South 368 423 10,000  Level Boston Center
02:48PM 43.3264 -73.3478 176° South 374 430 10,000 60 Level Boston Center
02:48PM 43.2594 -73.3494 181° South 328 377 10,100 -120 Climbing Boston Center
02:49PM 43.2261 -73.3519 183° South 338 389 9,900 -600 Descending Boston Center
02:49PM 43.1800 -73.3825 206° Southwest 285 328 9,500 -1,020 Descending Boston Center
02:50PM 43.1633 -73.3994 217° Southwest 296 341 8,900 -1,680 Descending Boston Center
02:50PM 43.1192 -73.4442 216° Southwest 261 300 7,800 -1,800 Descending Boston Center
02:51PM 43.0961 -73.4636 212° Southwest 283 326 7,100 -1,920 Descending Boston Center
02:51PM 43.0603 -73.5028 219° Southwest 262 302 5,900 -1,740 Descending Boston Center
02:52PM 43.0433 -73.5167 211° Southwest 267 307 5,400 -1,800 Descending Boston Center
02:52PM 43.0014 -73.5586 216° Southwest 258 297 4,100 -1,920 Descending Boston Center
02:53PM 42.9783 -73.5781 212° Southwest 267 307 3,500 -1,020 Descending Boston Center
02:53PM 42.9425 -73.6172 219° Southwest 255 293 3,100 -420 Descending Boston Center
02:54PM 42.9278 -73.6281 208° Southwest 267 307 3,100 -180 Level Boston Center
02:55PM 42.8669 -73.6722 208° Southwest 250 288 2,900 -720 Descending Boston Center
02:55PM 42.8269 -73.6914 199° South 206 237 1,900 -1,020 Descending Boston Center
02:56PM 42.8167 -73.6939 190° South 222 255 1,900 -120 Level Boston Center
02:56PM 42.7767 -73.7158 202° Southwest 191 220 1,800 -120 Descending Boston Center
02:57PM 42.7600 -73.7239 200° South 205 236 1,800 -900 Level Boston Center
02:57PM 42.7492 -73.7575 246° West 127 146 900 -540 Descending Boston Center
02:58PM 42.7183 -73.7144 134° Southeast 187 215 1,300 7,080 Climbing Boston Center
02:59PM 42.6683 -73.7247 189° South 147 169 10,000 4,320 Climbing Boston Center
03:00PM 42.6264 -73.7381 193° South 147 169 10,000  Level Boston Center
03:01PM 42.5847 -73.7514 193° South 147 169 10,000  Level Boston Center